createdAt,value
2017-10-28T00:00:48.465Z,96.46
2017-10-28T00:01:48.458Z,96.55
2017-10-28T00:02:48.443Z,97.03
2017-10-28T00:03:48.442Z,96.94
2017-10-28T00:04:48.426Z,96.46
2017-10-28T00:05:48.417Z,96.94
2017-10-28T00:06:48.408Z,96.94
2017-10-28T00:07:48.401Z,96.46
2017-10-28T00:08:48.393Z,97.03
2017-10-28T00:09:48.384Z,96.84
2017-10-28T00:10:48.373Z,97.22
2017-10-28T00:11:48.041Z,96.84
2017-10-28T00:12:48.357Z,96.94
2017-10-28T00:13:48.342Z,96.84
2017-10-28T00:14:48.342Z,96.94
2017-10-28T00:15:48.004Z,97.13
2017-10-28T00:16:48.318Z,96.94
2017-10-28T00:17:48.305Z,96.55
2017-10-28T00:18:48.309Z,96.94
2017-10-28T00:19:48.288Z,97.03
2017-10-28T00:20:48.279Z,96.75
2017-10-28T00:21:48.269Z,97.03
2017-10-28T00:22:48.258Z,96.75
2017-10-28T00:23:48.253Z,96.55
2017-10-28T00:24:48.243Z,96.94
2017-10-28T00:25:48.236Z,96.36
2017-10-28T00:26:48.229Z,96.6
2017-10-28T00:27:48.216Z,96.6
2017-10-28T00:28:48.205Z,96.51
2017-10-28T00:29:47.878Z,97.08
2017-10-28T00:30:48.189Z,96.98
2017-10-28T00:31:47.854Z,96.51
2017-10-28T00:32:48.170Z,96.41
2017-10-28T00:33:47.836Z,96.22
2017-10-28T00:34:48.163Z,96.51
2017-10-28T00:35:47.819Z,96.32
2017-10-28T00:36:47.808Z,96.98
2017-10-28T00:37:48.129Z,96.98
2017-10-28T00:38:47.791Z,96.98
2017-10-28T00:39:47.781Z,96.8
2017-10-28T00:40:48.097Z,96.7
2017-10-28T00:41:48.095Z,96.8
2017-10-28T00:42:48.077Z,96.7
2017-10-28T00:43:48.069Z,96.7
2017-10-28T00:44:48.059Z,96.32
2017-10-28T00:45:48.056Z,96.6
2017-10-28T00:46:48.038Z,96.6
2017-10-28T00:47:48.033Z,96.89
2017-10-28T00:48:48.023Z,96.8
2017-10-28T00:49:48.013Z,96.8
2017-10-28T00:50:48.001Z,96.7
2017-10-28T00:51:47.996Z,96.89
2017-10-28T00:52:47.990Z,96.7
2017-10-28T00:53:47.975Z,96.8
2017-10-28T00:54:47.968Z,96.7
2017-10-28T00:55:48.218Z,96.8
2017-10-28T00:56:47.952Z,96.98
2017-10-28T00:57:47.617Z,97.08
2017-10-28T00:58:47.933Z,96.89
2017-10-28T00:59:47.924Z,96.41
2017-10-28T01:00:47.590Z,96.22
2017-10-28T01:01:47.910Z,96.41
2017-10-28T01:02:47.896Z,96.32
2017-10-28T01:03:47.893Z,96.89
2017-10-28T01:04:47.878Z,96.7
2017-10-28T01:05:47.874Z,96.94
2017-10-28T01:06:47.873Z,96.89
2017-10-28T01:07:47.853Z,96.7
2017-10-28T01:08:47.843Z,96.7
2017-10-28T01:09:47.844Z,96.89
2017-10-28T01:10:47.827Z,96.8
2017-10-28T01:11:47.819Z,96.65
2017-10-28T01:12:47.814Z,96.84
2017-10-28T01:13:47.796Z,96.75
2017-10-28T01:14:47.792Z,96.36
2017-10-28T01:15:47.778Z,96.27
2017-10-28T01:16:47.447Z,96.56
2017-10-28T01:17:47.766Z,96.75
2017-10-28T01:18:47.752Z,96.84
2017-10-28T01:19:47.744Z,96.36
2017-10-28T01:20:47.737Z,96.36
2017-10-28T01:21:47.403Z,96.65
2017-10-28T01:22:47.715Z,96.46
2017-10-28T01:23:47.708Z,96.17
2017-10-28T01:24:47.701Z,96.56
2017-10-28T01:25:47.695Z,96.36
2017-10-28T01:26:47.611Z,96.56
2017-10-28T01:27:47.674Z,96.46
2017-10-28T01:28:47.342Z,96.36
2017-10-28T01:29:47.653Z,96.56
2017-10-28T01:30:47.646Z,96.46
2017-10-28T01:31:47.638Z,96.17
2017-10-28T01:32:47.641Z,96.27
2017-10-28T01:33:47.623Z,96.94
2017-10-28T01:34:47.611Z,96.65
2017-10-28T01:35:47.601Z,96.56
2017-10-28T01:36:47.272Z,96.36
2017-10-28T01:37:47.585Z,96.17
2017-10-28T01:38:47.585Z,96.46
2017-10-28T01:39:47.571Z,96.36
2017-10-28T01:40:47.560Z,96.65
2017-10-28T01:41:47.553Z,96.36
2017-10-28T01:42:47.220Z,96.17
2017-10-28T01:43:47.535Z,96.27
2017-10-28T01:44:47.532Z,96.75
2017-10-28T01:45:47.195Z,96.27
2017-10-28T01:46:47.507Z,96.36
2017-10-28T01:47:47.501Z,96.65
2017-10-28T01:48:47.492Z,96.65
2017-10-28T01:49:47.482Z,96.27
2017-10-28T01:50:47.474Z,96.27
2017-10-28T01:51:47.464Z,96.36
2017-10-28T01:52:47.134Z,96.46
2017-10-28T01:53:47.450Z,96.65
2017-10-28T01:54:47.440Z,96.75
2017-10-28T01:55:47.106Z,96.56
2017-10-28T01:56:47.423Z,96.17
2017-10-28T01:57:47.413Z,96.65
2017-10-28T01:58:47.401Z,96.94
2017-10-28T01:59:47.396Z,96.56
2017-10-28T02:00:47.384Z,96.46
2017-10-28T02:01:47.377Z,97.22
2017-10-28T02:02:47.368Z,96.36
2017-10-28T02:03:47.357Z,96.36
2017-10-28T02:04:47.029Z,96.46
2017-10-28T02:05:47.340Z,96.65
2017-10-28T02:06:47.337Z,96.56
2017-10-28T02:07:47.003Z,97.03
2017-10-28T02:08:47.317Z,96.65
2017-10-28T02:09:47.306Z,96.65
2017-10-28T02:10:47.301Z,97.32
2017-10-28T02:11:47.293Z,96.65
2017-10-28T02:12:47.279Z,96.56
2017-10-28T02:13:47.272Z,97.22
2017-10-28T02:14:47.265Z,96.46
2017-10-28T02:15:47.255Z,96.84
2017-10-28T02:16:47.260Z,96.84
2017-10-28T02:17:46.914Z,97.61
2017-10-28T02:18:47.260Z,96.94
2017-10-28T02:19:47.224Z,96.8
2017-10-28T02:20:47.212Z,97.03
2017-10-28T02:21:47.203Z,97.17
2017-10-28T02:22:47.203Z,97.17
2017-10-28T02:23:47.186Z,96.98
2017-10-28T02:24:47.175Z,97.27
2017-10-28T02:25:47.168Z,97.17
2017-10-28T02:26:47.155Z,96.98
2017-10-28T02:27:46.825Z,97.08
2017-10-28T02:28:47.148Z,97.27
2017-10-28T02:29:47.132Z,96.89
2017-10-28T02:30:47.144Z,97.08
2017-10-28T02:31:47.116Z,97.08
2017-10-28T02:32:47.105Z,96.89
2017-10-28T02:33:47.094Z,97.17
2017-10-28T02:34:47.093Z,97.36
2017-10-28T02:35:47.077Z,97.17
2017-10-28T02:36:47.080Z,96.98
2017-10-28T02:37:47.063Z,97.27
2017-10-28T02:38:47.051Z,96.8
2017-10-28T02:39:47.045Z,96.98
2017-10-28T02:40:47.036Z,97.17
2017-10-28T02:41:47.027Z,97.08
2017-10-28T02:42:47.018Z,96.98
2017-10-28T02:43:47.004Z,96.98
2017-10-28T02:44:46.674Z,96.98
2017-10-28T02:45:46.993Z,97.27
2017-10-28T02:46:46.976Z,97.17
2017-10-28T02:47:46.970Z,97.27
2017-10-28T02:48:46.641Z,96.89
2017-10-28T02:49:46.959Z,96.8
2017-10-28T02:50:46.619Z,96.8
2017-10-28T02:51:46.932Z,96.98
2017-10-28T02:52:46.922Z,96.98
2017-10-28T02:53:46.591Z,97.08
2017-10-28T02:54:46.906Z,96.98
2017-10-28T02:55:46.896Z,97.17
2017-10-28T02:56:46.887Z,96.8
2017-10-28T02:57:46.880Z,96.98
2017-10-28T02:58:46.871Z,97.17
2017-10-28T02:59:46.535Z,97.08
2017-10-28T03:00:46.851Z,97.08
2017-10-28T03:01:46.842Z,97.17
2017-10-28T03:02:46.510Z,96.89
2017-10-28T03:03:46.823Z,97.27
2017-10-28T03:04:46.814Z,97.17
2017-10-28T03:05:46.804Z,96.7
2017-10-28T03:06:46.794Z,96.65
2017-10-28T03:07:46.465Z,97.03
2017-10-28T03:08:46.777Z,96.89
2017-10-28T03:09:46.769Z,96.94
2017-10-28T03:10:46.757Z,96.98
2017-10-28T03:11:46.752Z,96.94
2017-10-28T03:12:46.738Z,97.03
2017-10-28T03:13:46.731Z,96.84
2017-10-28T03:14:46.399Z,96.94
2017-10-28T03:15:46.715Z,97.03
2017-10-28T03:16:46.702Z,97.41
2017-10-28T03:17:46.717Z,97.03
2017-10-28T03:18:46.685Z,96.75
2017-10-28T03:19:46.677Z,96.94
2017-10-28T03:20:46.345Z,96.94
2017-10-28T03:21:46.661Z,96.94
2017-10-28T03:22:46.655Z,96.98
2017-10-28T03:23:46.641Z,96.94
2017-10-28T03:24:46.630Z,96.84
2017-10-28T03:25:46.623Z,96.84
2017-10-28T03:26:46.289Z,96.65
2017-10-28T03:27:46.601Z,96.84
2017-10-28T03:28:46.596Z,96.75
2017-10-28T03:29:46.586Z,96.89
2017-10-28T03:30:46.581Z,96.7
2017-10-28T03:31:46.565Z,96.94
2017-10-28T03:32:46.557Z,96.7
2017-10-28T03:33:46.548Z,97.03
2017-10-28T03:34:46.541Z,96.84
2017-10-28T03:35:46.530Z,96.84
2017-10-28T03:36:46.518Z,96.94
2017-10-28T03:37:46.512Z,96.75
2017-10-28T03:38:46.501Z,96.84
2017-10-28T03:39:46.490Z,96.94
2017-10-28T03:40:46.487Z,96.65
2017-10-28T03:41:46.479Z,96.65
2017-10-28T03:42:46.467Z,96.55
2017-10-28T03:43:46.456Z,96.94
2017-10-28T03:44:46.453Z,96.84
2017-10-28T03:45:46.435Z,96.75
2017-10-28T03:46:46.430Z,96.75
2017-10-28T03:47:46.416Z,96.84
2017-10-28T03:48:46.413Z,96.94
2017-10-28T03:49:46.397Z,96.55
2017-10-28T03:50:46.390Z,96.84
2017-10-28T03:51:46.379Z,96.84
2017-10-28T03:52:46.382Z,96.75
2017-10-28T03:53:46.362Z,96.75
2017-10-28T03:54:46.352Z,96.84
2017-10-28T03:55:46.341Z,96.94
2017-10-28T03:56:46.334Z,96.65
2017-10-28T03:57:46.323Z,96.75
2017-10-28T03:58:45.991Z,97.03
2017-10-28T03:59:46.309Z,96.55
2017-10-28T04:00:45.972Z,96.84
2017-10-28T04:01:46.293Z,96.84
2017-10-28T04:02:46.280Z,96.94
2017-10-28T04:03:45.945Z,96.75
2017-10-28T04:04:46.258Z,96.75
2017-10-28T04:05:45.927Z,96.75
2017-10-28T04:06:46.240Z,96.65
2017-10-28T04:07:46.230Z,96.84
2017-10-28T04:08:46.220Z,96.65
2017-10-28T04:09:46.212Z,96.94
2017-10-28T04:10:45.880Z,96.84
2017-10-28T04:11:46.193Z,96.94
2017-10-28T04:12:46.194Z,96.94
2017-10-28T04:13:46.186Z,96.84
2017-10-28T04:14:46.165Z,96.65
2017-10-28T04:15:46.156Z,96.65
2017-10-28T04:16:46.145Z,97.13
2017-10-28T04:17:46.141Z,97.13
2017-10-28T04:18:45.807Z,97.03
2017-10-28T04:19:46.132Z,96.94
2017-10-28T04:20:46.112Z,96.65
2017-10-28T04:21:46.101Z,96.65
2017-10-28T04:22:45.769Z,96.84
2017-10-28T04:23:46.084Z,96.75
2017-10-28T04:24:46.074Z,97.03
2017-10-28T04:25:46.063Z,96.84
2017-10-28T04:26:46.066Z,96.94
2017-10-28T04:27:46.058Z,96.84
2017-10-28T04:28:46.035Z,96.94
2017-10-28T04:29:46.026Z,96.84
2017-10-28T04:30:46.021Z,97.03
2017-10-28T04:31:46.009Z,97.13
2017-10-28T04:32:45.994Z,96.84
2017-10-28T04:33:45.917Z,96.84
2017-10-28T04:34:45.977Z,97.03
2017-10-28T04:35:45.973Z,96.84
2017-10-28T04:36:45.968Z,97.03
2017-10-28T04:37:45.950Z,96.65
2017-10-28T04:38:45.938Z,96.84
2017-10-28T04:39:45.933Z,96.84
2017-10-28T04:40:45.920Z,96.94
2017-10-28T04:41:45.913Z,96.65
2017-10-28T04:42:45.912Z,96.84
2017-10-28T04:43:45.902Z,96.75
2017-10-28T04:44:45.885Z,97.13
2017-10-28T04:45:45.876Z,96.84
2017-10-28T04:46:45.545Z,97.03
2017-10-28T04:47:45.858Z,96.94
2017-10-28T04:48:45.846Z,97.13
2017-10-28T04:49:45.840Z,96.84
2017-10-28T04:50:45.505Z,96.84
2017-10-28T04:51:45.824Z,96.84
2017-10-28T04:52:45.813Z,96.84
2017-10-28T04:53:45.801Z,96.84
2017-10-28T04:54:45.794Z,97.03
2017-10-28T04:55:45.784Z,96.84
2017-10-28T04:56:45.450Z,97.03
2017-10-28T04:57:45.765Z,96.65
2017-10-28T04:58:45.753Z,97.03
2017-10-28T04:59:45.745Z,96.65
2017-10-28T05:00:45.741Z,96.75
2017-10-28T05:01:45.731Z,96.94
2017-10-28T05:02:45.720Z,96.94
2017-10-28T05:03:45.709Z,96.84
2017-10-28T05:04:45.950Z,96.75
2017-10-28T05:05:45.692Z,96.94
2017-10-28T05:06:45.679Z,96.94
2017-10-28T05:07:45.673Z,96.55
2017-10-28T05:08:45.661Z,96.94
2017-10-28T05:09:45.651Z,96.94
2017-10-28T05:10:45.320Z,97.03
2017-10-28T05:11:45.634Z,96.84
2017-10-28T05:12:45.624Z,96.84
2017-10-28T05:13:45.291Z,96.84
2017-10-28T05:14:45.602Z,96.94
2017-10-28T05:15:45.594Z,96.84
2017-10-28T05:16:45.263Z,96.84
2017-10-28T05:17:45.252Z,96.84
2017-10-28T05:18:45.565Z,97.13
2017-10-28T05:19:45.571Z,97.03
2017-10-28T05:20:45.548Z,96.84
2017-10-28T05:21:45.537Z,97.13
2017-10-28T05:22:45.207Z,96.65
2017-10-28T05:23:45.526Z,96.75
2017-10-28T05:24:45.517Z,96.94
2017-10-28T05:25:45.501Z,96.65
2017-10-28T05:26:45.500Z,96.84
2017-10-28T05:27:45.484Z,96.75
2017-10-28T05:28:45.472Z,96.75
2017-10-28T05:29:45.142Z,97.03
2017-10-28T05:30:45.453Z,96.94
2017-10-28T05:31:45.121Z,97.03
2017-10-28T05:32:45.434Z,96.75
2017-10-28T05:33:45.430Z,97.03
2017-10-28T05:34:45.414Z,97.13
2017-10-28T05:35:45.407Z,97.03
2017-10-28T05:36:45.395Z,97.22
2017-10-28T05:37:45.387Z,96.65
2017-10-28T05:38:45.385Z,97.22
2017-10-28T05:39:45.371Z,97.03
2017-10-28T05:40:45.358Z,97.13
2017-10-28T05:41:45.351Z,97.13
2017-10-28T05:42:45.341Z,97.03
2017-10-28T05:43:45.006Z,97.13
2017-10-28T05:44:45.320Z,96.94
2017-10-28T05:45:45.311Z,96.75
2017-10-28T05:46:45.326Z,96.75
2017-10-28T05:47:45.298Z,97.22
2017-10-28T05:48:44.961Z,96.94
2017-10-28T05:49:45.276Z,97.22
2017-10-28T05:50:45.260Z,96.94
2017-10-28T05:51:45.260Z,96.94
2017-10-28T05:52:45.246Z,97.03
2017-10-28T05:53:45.235Z,97.03
2017-10-28T05:54:44.905Z,97.03
2017-10-28T05:55:45.217Z,96.84
2017-10-28T05:56:45.208Z,96.94
2017-10-28T05:57:45.199Z,97.22
2017-10-28T05:58:45.190Z,97.31
2017-10-28T05:59:45.184Z,97.27
2017-10-28T06:00:45.173Z,97.03
2017-10-28T06:01:45.163Z,97.22
2017-10-28T06:02:45.153Z,97.03
2017-10-28T06:03:45.146Z,96.94
2017-10-28T06:04:45.140Z,97.13
2017-10-28T06:05:45.124Z,96.89
2017-10-28T06:06:44.792Z,96.89
2017-10-28T06:07:45.104Z,96.98
2017-10-28T06:08:45.104Z,96.89
2017-10-28T06:09:45.090Z,97.17
2017-10-28T06:10:45.083Z,97.17
2017-10-28T06:11:45.068Z,97.17
2017-10-28T06:12:45.060Z,97.17
2017-10-28T06:13:45.054Z,97.08
2017-10-28T06:14:45.040Z,96.89
2017-10-28T06:15:45.032Z,97.17
2017-10-28T06:16:45.021Z,96.89
2017-10-28T06:17:45.022Z,97.08
2017-10-28T06:18:45.005Z,97.17
2017-10-28T06:19:45.000Z,97.17
2017-10-28T06:20:44.985Z,96.98
2017-10-28T06:21:44.981Z,97.27
2017-10-28T06:22:44.967Z,97.08
2017-10-28T06:23:44.963Z,97.27
2017-10-28T06:24:44.949Z,97.27
2017-10-28T06:25:44.941Z,97.17
2017-10-28T06:26:44.933Z,97.17
2017-10-28T06:27:44.921Z,97.17
2017-10-28T06:28:44.954Z,97.17
2017-10-28T06:29:44.905Z,97.17
2017-10-28T06:30:44.895Z,97.27
2017-10-28T06:31:44.565Z,97.27
2017-10-28T06:32:44.878Z,96.89
2017-10-28T06:33:44.865Z,97.17
2017-10-28T06:34:44.536Z,97.27
2017-10-28T06:35:44.850Z,97.17
2017-10-28T06:36:44.838Z,97.27
2017-10-28T06:37:44.832Z,97.36
2017-10-28T06:38:44.822Z,97.08
2017-10-28T06:39:44.816Z,97.27
2017-10-28T06:40:44.485Z,97.46
2017-10-28T06:41:44.472Z,97.17
2017-10-28T06:42:44.788Z,97.36
2017-10-28T06:43:44.779Z,97.08
2017-10-28T06:44:44.765Z,97.56
2017-10-28T06:45:44.438Z,97.17
2017-10-28T06:46:44.748Z,97.56
2017-10-28T06:47:44.418Z,97.08
2017-10-28T06:48:44.729Z,97.27
2017-10-28T06:49:44.723Z,97.08
2017-10-28T06:50:44.726Z,97.36
2017-10-28T06:51:44.715Z,97.27
2017-10-28T06:52:44.698Z,97.36
2017-10-28T06:53:44.688Z,97.08
2017-10-28T06:54:44.677Z,97.17
2017-10-28T06:55:44.668Z,97.27
2017-10-28T06:56:44.338Z,97.17
2017-10-28T06:57:44.649Z,96.7
2017-10-28T06:58:44.647Z,97.08
2017-10-28T06:59:44.632Z,97.17
2017-10-28T07:00:44.626Z,97.08
2017-10-28T07:01:44.612Z,97.27
2017-10-28T07:02:44.604Z,97.17
2017-10-28T07:03:44.594Z,97.22
2017-10-28T07:04:44.585Z,97.13
2017-10-28T07:05:44.585Z,97.03
2017-10-28T07:06:44.568Z,97.03
2017-10-28T07:07:44.567Z,97.22
2017-10-28T07:08:44.556Z,97.22
2017-10-28T07:09:44.544Z,97.51
2017-10-28T07:10:44.212Z,96.84
2017-10-28T07:11:44.536Z,96.56
2017-10-28T07:12:44.196Z,97.03
2017-10-28T07:13:44.511Z,96.46
2017-10-28T07:14:44.505Z,97.22
2017-10-28T07:15:44.498Z,97.22
2017-10-28T07:16:44.491Z,96.94
2017-10-28T07:17:44.478Z,96.84
2017-10-28T07:18:44.143Z,96.51
2017-10-28T07:19:44.135Z,97.13
2017-10-28T07:20:44.451Z,96.56
2017-10-28T07:21:44.119Z,97.17
2017-10-28T07:22:44.438Z,96.7
2017-10-28T07:23:44.430Z,96.8
2017-10-28T07:24:44.424Z,97.08
2017-10-28T07:25:44.087Z,96.8
2017-10-28T07:26:44.396Z,96.89
2017-10-28T07:27:44.404Z,96.7
2017-10-28T07:28:44.384Z,96.98
2017-10-28T07:29:44.373Z,96.51
2017-10-28T07:30:44.041Z,96.98
2017-10-28T07:31:44.357Z,97.08
2017-10-28T07:32:44.344Z,97.27
2017-10-28T07:33:44.342Z,97.08
2017-10-28T07:34:44.334Z,96.89
2017-10-28T07:35:44.323Z,96.51
2017-10-28T07:36:44.315Z,96.98
2017-10-28T07:37:44.306Z,96.98
2017-10-28T07:38:44.298Z,97.94
2017-10-28T07:39:44.299Z,96.89
2017-10-28T07:40:44.285Z,97.08
2017-10-28T07:41:44.269Z,96.8
2017-10-28T07:42:43.939Z,97.27
2017-10-28T07:43:44.254Z,97.17
2017-10-28T07:44:44.247Z,96.32
2017-10-28T07:45:44.244Z,96.98
2017-10-28T07:46:44.227Z,96.89
2017-10-28T07:47:44.219Z,97.17
2017-10-28T07:48:44.216Z,97.27
2017-10-28T07:49:44.207Z,97.17
2017-10-28T07:50:44.198Z,96.89
2017-10-28T07:51:43.864Z,96.61
2017-10-28T07:52:44.176Z,97.46
2017-10-28T07:53:43.849Z,96.61
2017-10-28T07:54:44.167Z,96.89
2017-10-28T07:55:44.157Z,97.37
2017-10-28T07:56:44.146Z,97.46
2017-10-28T07:57:44.138Z,96.03
2017-10-28T07:58:44.129Z,96.41
2017-10-28T07:59:44.122Z,96.13
2017-10-28T08:00:44.112Z,96.32
2017-10-28T08:01:44.114Z,97.37
2017-10-28T08:02:44.106Z,95.84
2017-10-28T08:03:44.088Z,94.98
2017-10-28T08:04:44.087Z,96.13
2017-10-28T08:05:43.752Z,97.08
2017-10-28T08:06:43.741Z,96.41
2017-10-28T08:07:44.069Z,97.08
2017-10-28T08:08:44.046Z,96.7
2017-10-28T08:09:44.041Z,96.41
2017-10-28T08:10:44.034Z,96.13
2017-10-28T08:11:44.276Z,95.84
2017-10-28T08:12:44.020Z,96.13
2017-10-28T08:13:44.007Z,97.08
2017-10-28T08:14:44.006Z,96.03
2017-10-28T08:15:43.990Z,95.37
2017-10-28T08:16:43.983Z,96.22
2017-10-28T08:17:43.976Z,96.98
2017-10-28T08:18:43.968Z,96.61
2017-10-28T08:19:43.964Z,97.08
2017-10-28T08:20:43.951Z,97.37
2017-10-28T08:21:43.621Z,97.66
2017-10-28T08:22:43.935Z,96.46
2017-10-28T08:23:43.936Z,97.03
2017-10-28T08:24:43.918Z,96.46
2017-10-28T08:25:43.913Z,96.46
2017-10-28T08:26:43.588Z,96.37
2017-10-28T08:27:43.573Z,95.22
2017-10-28T08:28:43.888Z,95.89
2017-10-28T08:29:43.880Z,96.08
2017-10-28T08:30:43.872Z,96.08
2017-10-28T08:31:43.862Z,96.41
2017-10-28T08:32:43.858Z,97.03
2017-10-28T08:33:43.848Z,96.17
2017-10-28T08:34:43.516Z,95.7
2017-10-28T08:35:43.833Z,96.32
2017-10-28T08:36:43.823Z,96.7
2017-10-28T08:37:43.818Z,95.17
2017-10-28T08:38:43.806Z,95.27
2017-10-28T08:39:43.801Z,95.75
2017-10-28T08:40:43.793Z,96.41
2017-10-28T08:41:43.464Z,96.32
2017-10-28T08:42:43.702Z,97.08
2017-10-28T08:43:43.770Z,96.89
2017-10-28T08:44:43.761Z,96.32
2017-10-28T08:45:43.750Z,95.94
2017-10-28T08:46:43.746Z,96.03
2017-10-28T08:47:43.732Z,96.22
2017-10-28T08:48:43.736Z,95.94
2017-10-28T08:49:43.716Z,96.89
2017-10-28T08:50:43.708Z,96.32
2017-10-28T08:51:43.706Z,96.22
2017-10-28T08:52:43.691Z,96.13
2017-10-28T08:53:43.685Z,96.51
2017-10-28T08:54:43.678Z,95.94
2017-10-28T08:55:43.346Z,95.7
2017-10-28T08:56:43.660Z,96.84
2017-10-28T08:57:43.655Z,96.08
2017-10-28T08:58:43.644Z,95.41
2017-10-28T08:59:43.313Z,95.79
2017-10-28T09:00:43.631Z,95.98
2017-10-28T09:01:43.621Z,95.79
2017-10-28T09:02:43.612Z,95.41
2017-10-28T09:03:43.606Z,95.32
2017-10-28T09:04:43.601Z,95.03
2017-10-28T09:05:43.267Z,95.03
2017-10-28T09:06:43.258Z,95.41
2017-10-28T09:07:43.570Z,95.03
2017-10-28T09:08:43.815Z,95.12
2017-10-28T09:09:43.234Z,93.88
2017-10-28T09:10:43.569Z,94.17
2017-10-28T09:11:43.545Z,94.27
2017-10-28T09:12:43.537Z,94.17
2017-10-28T09:13:43.526Z,94.36
2017-10-28T09:14:43.517Z,94.56
2017-10-28T09:15:43.510Z,95.03
2017-10-28T09:16:43.500Z,95.65
2017-10-28T09:17:43.494Z,95.36
2017-10-28T09:18:43.484Z,93.6
2017-10-28T09:19:43.489Z,93.36
2017-10-28T09:20:43.475Z,94.6
2017-10-28T09:21:43.464Z,95.27
2017-10-28T09:22:43.453Z,93.26
2017-10-28T09:23:43.448Z,94.03
2017-10-28T09:24:43.440Z,94.12
2017-10-28T09:25:43.436Z,95.08
2017-10-28T09:26:43.432Z,95.17
2017-10-28T09:27:43.098Z,95.56
2017-10-28T09:28:43.412Z,95.27
2017-10-28T09:29:43.403Z,95.36
2017-10-28T09:30:43.404Z,95.08
2017-10-28T09:31:43.387Z,94.89
2017-10-28T09:32:43.378Z,94.31
2017-10-28T09:33:43.050Z,94.89
2017-10-28T09:34:43.367Z,94.98
2017-10-28T09:35:43.035Z,94.22
2017-10-28T09:36:43.351Z,93.17
2017-10-28T09:37:43.343Z,93.46
2017-10-28T09:38:43.342Z,93.36
2017-10-28T09:39:43.327Z,93.46
2017-10-28T09:40:43.319Z,93.17
2017-10-28T09:41:43.319Z,93.6
2017-10-28T09:42:43.309Z,95.41
2017-10-28T09:43:43.302Z,94.03
2017-10-28T09:44:43.542Z,95.36
2017-10-28T09:45:42.961Z,94.79
2017-10-28T09:46:43.278Z,94.65
2017-10-28T09:47:43.265Z,95.08
2017-10-28T09:48:43.259Z,94.6
2017-10-28T09:49:43.251Z,93.65
2017-10-28T09:50:43.245Z,93.98
2017-10-28T09:51:43.238Z,93.98
2017-10-28T09:52:43.229Z,94.98
2017-10-28T09:53:43.223Z,94.51
2017-10-28T09:54:43.212Z,94.12
2017-10-28T09:55:43.208Z,94.7
2017-10-28T09:56:43.200Z,94.22
2017-10-28T09:57:43.191Z,94.6
2017-10-28T09:58:43.184Z,94.89
2017-10-28T09:59:42.860Z,94.22
2017-10-28T10:00:42.849Z,94.12
2017-10-28T10:01:43.159Z,94.51
2017-10-28T10:02:43.156Z,93.74
2017-10-28T10:03:43.145Z,94.22
2017-10-28T10:04:43.149Z,92.79
2017-10-28T10:05:43.132Z,92.31
2017-10-28T10:06:43.126Z,92.31
2017-10-28T10:07:42.795Z,93.36
2017-10-28T10:08:43.109Z,93.6
2017-10-28T10:09:43.104Z,93.41
2017-10-28T10:10:43.097Z,93.79
2017-10-28T10:11:43.086Z,93.74
2017-10-28T10:12:43.080Z,93.41
2017-10-28T10:13:43.072Z,94.03
2017-10-28T10:14:43.065Z,94.27
2017-10-28T10:15:43.060Z,93.6
2017-10-28T10:16:43.056Z,92.45
2017-10-28T10:17:43.042Z,93.5
2017-10-28T10:18:43.039Z,94.27
2017-10-28T10:19:43.027Z,92.55
2017-10-28T10:20:43.021Z,93.84
2017-10-28T10:21:43.026Z,94.12
2017-10-28T10:22:43.009Z,94.46
2017-10-28T10:23:43.008Z,93.79
2017-10-28T10:24:42.995Z,92.6
2017-10-28T10:25:42.986Z,92.97
2017-10-28T10:26:42.983Z,93.26
2017-10-28T10:27:42.969Z,94.22
2017-10-28T10:28:42.968Z,93.74
2017-10-28T10:29:42.956Z,93.55
2017-10-28T10:30:42.948Z,93.36
2017-10-28T10:31:42.950Z,94.22
2017-10-28T10:32:42.611Z,94.22
2017-10-28T10:33:42.926Z,94.51
2017-10-28T10:34:42.919Z,94.51
2017-10-28T10:35:42.913Z,93.74
2017-10-28T10:36:42.903Z,93.55
2017-10-28T10:37:42.899Z,93.26
2017-10-28T10:38:42.891Z,93.55
2017-10-28T10:39:42.560Z,94.12
2017-10-28T10:40:42.877Z,94.22
2017-10-28T10:41:42.867Z,94.41
2017-10-28T10:42:42.862Z,94.41
2017-10-28T10:43:42.853Z,93.84
2017-10-28T10:44:42.848Z,93.17
2017-10-28T10:45:42.839Z,93.55
2017-10-28T10:46:42.837Z,94.31
2017-10-28T10:47:42.823Z,92.6
2017-10-28T10:48:42.815Z,93.46
2017-10-28T10:49:42.807Z,93.74
2017-10-28T10:50:42.809Z,94.03
2017-10-28T10:51:42.797Z,93.17
2017-10-28T10:52:42.785Z,91.74
2017-10-28T10:53:42.777Z,92.31
2017-10-28T10:54:42.772Z,93.17
2017-10-28T10:55:42.763Z,93.07
2017-10-28T10:56:42.434Z,93.55
2017-10-28T10:57:42.750Z,93.93
2017-10-28T10:58:42.741Z,93.84
2017-10-28T10:59:42.734Z,93.65
2017-10-28T11:00:42.730Z,92.41
2017-10-28T11:01:42.717Z,92.79
2017-10-28T11:02:42.716Z,92.79
2017-10-28T11:03:42.701Z,92.16
2017-10-28T11:04:42.695Z,93.21
2017-10-28T11:05:42.690Z,92.74
2017-10-28T11:06:42.682Z,91.88
2017-10-28T11:07:42.350Z,92.36
2017-10-28T11:08:42.675Z,92.26
2017-10-28T11:09:42.658Z,92.26
2017-10-28T11:10:42.652Z,92.07
2017-10-28T11:11:42.646Z,92.36
2017-10-28T11:12:42.645Z,92.83
2017-10-28T11:13:42.632Z,91.69
2017-10-28T11:14:42.623Z,91.78
2017-10-28T11:15:42.615Z,92.55
2017-10-28T11:16:42.288Z,92.36
2017-10-28T11:17:42.604Z,92.16
2017-10-28T11:18:42.602Z,92.26
2017-10-28T11:19:42.469Z,91.78
2017-10-28T11:20:42.261Z,92.07
2017-10-28T11:21:42.571Z,92.07
2017-10-28T11:22:42.567Z,91.69
2017-10-28T11:23:42.565Z,92.26
2017-10-28T11:24:42.555Z,91.59
2017-10-28T11:25:42.546Z,90.92
2017-10-28T11:26:42.540Z,91.21
2017-10-28T11:27:42.533Z,90.92
2017-10-28T11:28:42.532Z,91.78
2017-10-28T11:29:42.195Z,92.36
2017-10-28T11:30:42.512Z,91.4
2017-10-28T11:31:42.505Z,91.78
2017-10-28T11:32:42.496Z,92.07
2017-10-28T11:33:42.489Z,91.21
2017-10-28T11:34:42.484Z,91.59
2017-10-28T11:35:42.481Z,91.64
2017-10-28T11:36:42.471Z,92.79
2017-10-28T11:37:42.467Z,92.31
2017-10-28T11:38:42.455Z,91.5
2017-10-28T11:39:42.447Z,91.88
2017-10-28T11:40:42.116Z,91.83
2017-10-28T11:41:42.429Z,91.64
2017-10-28T11:42:42.425Z,91.55
2017-10-28T11:43:42.417Z,91.5
2017-10-28T11:44:42.407Z,92.31
2017-10-28T11:45:42.402Z,91.55
2017-10-28T11:46:42.393Z,91.93
2017-10-28T11:47:42.391Z,91.45
2017-10-28T11:48:42.381Z,91.93
2017-10-28T11:49:42.625Z,91.74
2017-10-28T11:50:42.379Z,92.31
2017-10-28T11:51:42.357Z,92.5
2017-10-28T11:52:42.353Z,92.88
2017-10-28T11:53:42.029Z,92.97
2017-10-28T11:54:42.338Z,92.5
2017-10-28T11:55:42.327Z,91.64
2017-10-28T11:56:42.318Z,92.02
2017-10-28T11:57:42.313Z,91.64
2017-10-28T11:58:42.304Z,91.45
2017-10-28T11:59:42.299Z,91.36
2017-10-28T12:00:42.290Z,91.45
2017-10-28T12:01:42.293Z,92.5
2017-10-28T12:02:42.274Z,92.12
2017-10-28T12:03:42.268Z,91.64
2017-10-28T12:04:42.259Z,91.64
2017-10-28T12:05:42.253Z,91.74
2017-10-28T12:06:42.245Z,91.55
2017-10-28T12:07:42.236Z,91.36
2017-10-28T12:08:42.231Z,90.97
2017-10-28T12:09:42.244Z,91.64
2017-10-28T12:10:42.215Z,91.45
2017-10-28T12:11:42.208Z,91.26
2017-10-28T12:12:42.200Z,91.83
2017-10-28T12:13:42.195Z,91.45
2017-10-28T12:14:42.187Z,90.78
2017-10-28T12:15:42.184Z,91.74
2017-10-28T12:16:42.224Z,91.55
2017-10-28T12:17:42.164Z,91.36
2017-10-28T12:18:42.164Z,91.74
2017-10-28T12:19:42.148Z,92.02
2017-10-28T12:20:42.392Z,91.4
2017-10-28T12:21:41.812Z,91.78
2017-10-28T12:22:42.128Z,91.83
2017-10-28T12:23:42.119Z,91.88
2017-10-28T12:24:41.795Z,90.69
2017-10-28T12:25:42.103Z,91.11
2017-10-28T12:26:42.095Z,91.26
2017-10-28T12:27:42.096Z,91.26
2017-10-28T12:28:42.085Z,91.07
2017-10-28T12:29:42.075Z,91.02
2017-10-28T12:30:42.067Z,90.83
2017-10-28T12:31:42.061Z,90.59
2017-10-28T12:32:42.054Z,91.07
2017-10-28T12:33:42.046Z,90.78
2017-10-28T12:34:42.038Z,90.88
2017-10-28T12:35:42.035Z,90.88
2017-10-28T12:36:41.700Z,91.26
2017-10-28T12:37:42.015Z,91.83
2017-10-28T12:38:42.014Z,91.74
2017-10-28T12:39:42.002Z,90.92
2017-10-28T12:40:41.993Z,90.88
2017-10-28T12:41:41.988Z,91.07
2017-10-28T12:42:41.979Z,91.21
2017-10-28T12:43:41.975Z,90.35
2017-10-28T12:44:41.969Z,90.54
2017-10-28T12:45:41.958Z,90.11
2017-10-28T12:46:41.951Z,90.25
2017-10-28T12:47:41.944Z,90.11
2017-10-28T12:48:41.937Z,90.16
2017-10-28T12:49:41.928Z,90.45
2017-10-28T12:50:41.919Z,90.69
2017-10-28T12:51:41.918Z,90.25
2017-10-28T12:52:41.905Z,90.73
2017-10-28T12:53:41.899Z,90.64
2017-10-28T12:54:41.889Z,90.06